KLM85P EHAM-LHBP
Flight info
| Callsign | KLM85P |
|---|---|
| Flight time | 1h 38m |
| Altitude | 37000 |
| Route | ARNEM L620 HMM DCT NOMKA DCT OMELO DCT ODNEM DCT NIT M748 ARFOX |
| Aircraft | B738/M-SDE2E3FGHIRWXY/LB1 |
Departure
| Time | 2026-05-07 14:09 |
|---|---|
| Airport | Amsterdam Airport Schiphol (EHAM) |
Arrival
| Time | 2026-05-07 15:47 |
|---|---|
| Airport | Budapest Liszt Ferenc International Airport (LHBP) |
| Time | Latitude | Longitude | Altitude | Speed | Heading |
|---|---|---|---|---|---|
| 2026-05-07 13:37 | 52.30895 | 4.77367 | -2 ft | 0 kts | 3° |
| 2026-05-07 13:58 | 52.30885 | 4.77366 | -2 ft | 3 kts | 358° |
| 2026-05-07 13:58 | 52.30865 | 4.77369 | -2 ft | 3 kts | 354° |
| 2026-05-07 13:58 | 52.30850 | 4.77371 | -2 ft | 3 kts | 50° |
| 2026-05-07 13:59 | 52.30843 | 4.77349 | -2 ft | 3 kts | 81° |
| 2026-05-07 13:59 | 52.30842 | 4.77337 | -2 ft | 0 kts | 79° |
| 2026-05-07 14:01 | 52.30842 | 4.77340 | -2 ft | 2 kts | 81° |
| 2026-05-07 14:01 | 52.30839 | 4.77365 | -2 ft | 4 kts | 97° |
| 2026-05-07 14:02 | 52.30835 | 4.77442 | -2 ft | 9 kts | 94° |
| 2026-05-07 14:02 | 52.30839 | 4.77565 | -2 ft | 12 kts | 62° |
| 2026-05-07 14:02 | 52.30916 | 4.77612 | -2 ft | 13 kts | 5° |
| 2026-05-07 14:02 | 52.31011 | 4.77620 | -2 ft | 14 kts | 3° |
| 2026-05-07 14:03 | 52.31116 | 4.77630 | -2 ft | 16 kts | 3° |
| 2026-05-07 14:03 | 52.31231 | 4.77641 | -2 ft | 17 kts | 3° |
| 2026-05-07 14:03 | 52.31355 | 4.77652 | -2 ft | 18 kts | 4° |
| 2026-05-07 14:03 | 52.31479 | 4.77606 | -2 ft | 19 kts | 322° |
| 2026-05-07 14:04 | 52.31564 | 4.77450 | -2 ft | 18 kts | 295° |
| 2026-05-07 14:04 | 52.31574 | 4.77239 | -2 ft | 19 kts | 266° |
| 2026-05-07 14:04 | 52.31566 | 4.77025 | -2 ft | 19 kts | 267° |
| 2026-05-07 14:04 | 52.31559 | 4.76808 | -2 ft | 19 kts | 267° |
| 2026-05-07 14:05 | 52.31551 | 4.76587 | -2 ft | 20 kts | 266° |
| 2026-05-07 14:05 | 52.31543 | 4.76364 | -1 ft | 20 kts | 266° |
| 2026-05-07 14:05 | 52.31535 | 4.76135 | -2 ft | 20 kts | 266° |
| 2026-05-07 14:05 | 52.31527 | 4.75905 | -2 ft | 20 kts | 266° |
| 2026-05-07 14:06 | 52.31519 | 4.75672 | -2 ft | 21 kts | 266° |
| 2026-05-07 14:06 | 52.31512 | 4.75441 | -2 ft | 20 kts | 266° |
| 2026-05-07 14:06 | 52.31505 | 4.75214 | -2 ft | 20 kts | 267° |
| 2026-05-07 14:06 | 52.31497 | 4.74988 | -2 ft | 20 kts | 266° |
| 2026-05-07 14:07 | 52.31490 | 4.74778 | -2 ft | 16 kts | 267° |
| 2026-05-07 14:07 | 52.31543 | 4.74665 | -2 ft | 14 kts | 351° |
| 2026-05-07 14:07 | 52.31637 | 4.74681 | -1 ft | 13 kts | 27° |
| 2026-05-07 14:07 | 52.31669 | 4.74804 | -2 ft | 4 kts | 87° |
| 2026-05-07 14:08 | 52.31669 | 4.74824 | -2 ft | 11 kts | 88° |
| 2026-05-07 14:08 | 52.31682 | 4.75196 | -3 ft | 59 kts | 86° |
| 2026-05-07 14:08 | 52.31717 | 4.76187 | -1 ft | 114 kts | 87° |
| 2026-05-07 14:08 | 52.31772 | 4.77748 | 24 ft | 155 kts | 86° |
| 2026-05-07 14:09 | 52.31827 | 4.79526 | 520 ft | 160 kts | 86° |
| 2026-05-07 14:09 | 52.31907 | 4.81445 | 901 ft | 179 kts | 85° |
| 2026-05-07 14:09 | 52.31980 | 4.83454 | 1644 ft | 178 kts | 86° |
| 2026-05-07 14:09 | 52.32040 | 4.85562 | 2125 ft | 194 kts | 90° |
| 2026-05-07 14:10 | 52.31790 | 4.87785 | 2612 ft | 210 kts | 111° |
| 2026-05-07 14:10 | 52.31203 | 4.90062 | 3123 ft | 228 kts | 113° |
| 2026-05-07 14:10 | 52.30547 | 4.92510 | 3831 ft | 243 kts | 113° |
| 2026-05-07 14:10 | 52.29846 | 4.95131 | 4496 ft | 259 kts | 113° |
| 2026-05-07 14:11 | 52.29256 | 4.97947 | 5342 ft | 265 kts | 106° |
| 2026-05-07 14:11 | 52.28744 | 5.00871 | 6253 ft | 270 kts | 105° |
| 2026-05-07 14:11 | 52.28232 | 5.03838 | 7153 ft | 274 kts | 105° |
| 2026-05-07 14:11 | 52.27711 | 5.06856 | 8048 ft | 278 kts | 105° |
| 2026-05-07 14:12 | 52.27180 | 5.09910 | 8917 ft | 282 kts | 106° |
| 2026-05-07 14:12 | 52.26638 | 5.13012 | 9777 ft | 286 kts | 106° |
| 2026-05-07 14:12 | 52.26083 | 5.16167 | 10492 ft | 297 kts | 106° |
| 2026-05-07 14:12 | 52.25496 | 5.19505 | 10968 ft | 314 kts | 105° |
| 2026-05-07 14:13 | 52.24879 | 5.23027 | 11431 ft | 331 kts | 106° |
| 2026-05-07 14:13 | 52.24373 | 5.26782 | 11919 ft | 346 kts | 96° |
| 2026-05-07 14:13 | 52.24161 | 5.30734 | 12637 ft | 353 kts | 95° |
| 2026-05-07 14:13 | 52.23957 | 5.34746 | 13415 ft | 358 kts | 95° |
| 2026-05-07 14:14 | 52.23754 | 5.38820 | 14203 ft | 362 kts | 95° |
| 2026-05-07 14:14 | 52.23547 | 5.42936 | 14992 ft | 366 kts | 95° |
| 2026-05-07 14:14 | 52.23335 | 5.47101 | 15764 ft | 371 kts | 95° |
| 2026-05-07 14:14 | 52.23089 | 5.51311 | 16508 ft | 375 kts | 99° |
| 2026-05-07 14:15 | 52.22416 | 5.55441 | 17264 ft | 379 kts | 110° |
| 2026-05-07 14:15 | 52.21469 | 5.59471 | 17974 ft | 383 kts | 111° |
| 2026-05-07 14:15 | 52.20495 | 5.63477 | 18663 ft | 387 kts | 112° |
| 2026-05-07 14:15 | 52.19484 | 5.67574 | 19334 ft | 391 kts | 112° |
| 2026-05-07 14:16 | 52.18466 | 5.71711 | 20009 ft | 395 kts | 112° |
| 2026-05-07 14:16 | 52.17446 | 5.75893 | 20647 ft | 399 kts | 112° |
| 2026-05-07 14:16 | 52.16419 | 5.80118 | 21282 ft | 403 kts | 112° |
| 2026-05-07 14:16 | 52.15380 | 5.84385 | 21887 ft | 407 kts | 112° |
| 2026-05-07 14:17 | 52.14329 | 5.88671 | 22471 ft | 410 kts | 112° |
| 2026-05-07 14:17 | 52.13262 | 5.93008 | 23040 ft | 414 kts | 112° |
| 2026-05-07 14:17 | 52.12187 | 5.97361 | 23591 ft | 417 kts | 112° |
| 2026-05-07 14:17 | 52.11100 | 6.01759 | 24124 ft | 420 kts | 112° |
| 2026-05-07 14:18 | 52.10025 | 6.06209 | 24628 ft | 423 kts | 109° |
| 2026-05-07 14:18 | 52.09323 | 6.10863 | 25143 ft | 426 kts | 100° |
| 2026-05-07 14:18 | 52.08808 | 6.15628 | 25601 ft | 429 kts | 100° |
| 2026-05-07 14:18 | 52.08310 | 6.20424 | 26044 ft | 432 kts | 99° |
| 2026-05-07 14:19 | 52.07819 | 6.25252 | 26490 ft | 434 kts | 99° |
| 2026-05-07 14:19 | 52.07320 | 6.30103 | 26906 ft | 437 kts | 100° |
| 2026-05-07 14:19 | 52.06808 | 6.34988 | 27311 ft | 439 kts | 100° |
| 2026-05-07 14:19 | 52.06287 | 6.39883 | 27692 ft | 441 kts | 100° |
| 2026-05-07 14:20 | 52.05761 | 6.44815 | 28062 ft | 444 kts | 100° |
| 2026-05-07 14:20 | 52.05234 | 6.49758 | 28415 ft | 446 kts | 100° |
| 2026-05-07 14:20 | 52.04704 | 6.54731 | 28762 ft | 448 kts | 100° |
| 2026-05-07 14:20 | 52.04169 | 6.59731 | 29103 ft | 450 kts | 100° |
| 2026-05-07 14:21 | 52.03631 | 6.64739 | 29430 ft | 451 kts | 100° |
| 2026-05-07 14:21 | 52.03086 | 6.69761 | 29748 ft | 453 kts | 100° |
| 2026-05-07 14:21 | 52.02535 | 6.74810 | 30046 ft | 455 kts | 100° |
| 2026-05-07 14:21 | 52.01932 | 6.79857 | 30377 ft | 455 kts | 103° |
| 2026-05-07 14:22 | 52.01174 | 6.84837 | 30774 ft | 454 kts | 105° |
| 2026-05-07 14:22 | 52.00310 | 6.89773 | 31164 ft | 453 kts | 106° |
| 2026-05-07 14:22 | 51.99449 | 6.94689 | 31536 ft | 453 kts | 105° |
| 2026-05-07 14:22 | 51.98647 | 6.99625 | 31880 ft | 453 kts | 104° |
| 2026-05-07 14:23 | 51.97899 | 7.04531 | 32231 ft | 452 kts | 104° |
| 2026-05-07 14:23 | 51.97145 | 7.09482 | 32577 ft | 452 kts | 104° |
| 2026-05-07 14:23 | 51.96340 | 7.14400 | 32921 ft | 451 kts | 106° |
| 2026-05-07 14:23 | 51.95434 | 7.19280 | 33239 ft | 451 kts | 108° |
| 2026-05-07 14:24 | 51.94474 | 7.24122 | 33568 ft | 451 kts | 108° |
| 2026-05-07 14:24 | 51.93528 | 7.28960 | 33890 ft | 450 kts | 107° |
| 2026-05-07 14:24 | 51.92621 | 7.33812 | 34211 ft | 450 kts | 107° |
| 2026-05-07 14:24 | 51.91739 | 7.38671 | 34509 ft | 450 kts | 106° |
| 2026-05-07 14:25 | 51.90851 | 7.43529 | 34788 ft | 450 kts | 107° |
| 2026-05-07 14:25 | 51.89945 | 7.48378 | 35078 ft | 450 kts | 107° |
| 2026-05-07 14:25 | 51.89026 | 7.53221 | 35353 ft | 450 kts | 107° |
| 2026-05-07 14:25 | 51.88103 | 7.58065 | 35613 ft | 450 kts | 107° |
| 2026-05-07 14:26 | 51.87182 | 7.62915 | 35860 ft | 451 kts | 107° |
| 2026-05-07 14:26 | 51.86264 | 7.67762 | 36148 ft | 451 kts | 107° |
| 2026-05-07 14:26 | 51.85363 | 7.72624 | 36382 ft | 451 kts | 105° |
| 2026-05-07 14:26 | 51.84619 | 7.77554 | 36623 ft | 452 kts | 102° |
| 2026-05-07 14:27 | 51.84033 | 7.82532 | 36946 ft | 450 kts | 100° |
| 2026-05-07 14:27 | 51.82836 | 7.92577 | 37082 ft | 458 kts | 103° |
| 2026-05-07 14:28 | 51.81390 | 8.02671 | 37085 ft | 464 kts | 103° |
| 2026-05-07 14:28 | 51.79979 | 8.12877 | 37086 ft | 466 kts | 102° |
| 2026-05-07 14:29 | 51.78601 | 8.23123 | 37086 ft | 467 kts | 103° |
| 2026-05-07 14:29 | 51.77170 | 8.33359 | 37084 ft | 467 kts | 103° |
| 2026-05-07 14:30 | 51.75748 | 8.43507 | 37086 ft | 465 kts | 103° |
| 2026-05-07 14:30 | 51.74323 | 8.53688 | 37086 ft | 464 kts | 103° |
| 2026-05-07 14:31 | 51.72887 | 8.63824 | 37084 ft | 464 kts | 103° |
| 2026-05-07 14:31 | 51.71442 | 8.73957 | 37090 ft | 464 kts | 103° |
| 2026-05-07 14:32 | 51.69991 | 8.84080 | 37086 ft | 463 kts | 103° |
| 2026-05-07 14:32 | 51.68532 | 8.94190 | 37084 ft | 463 kts | 103° |
| 2026-05-07 14:33 | 51.67064 | 9.04287 | 37091 ft | 463 kts | 104° |
| 2026-05-07 14:33 | 51.65586 | 9.14396 | 37082 ft | 463 kts | 104° |
| 2026-05-07 14:34 | 51.64100 | 9.24486 | 37079 ft | 462 kts | 104° |
| 2026-05-07 14:34 | 51.62607 | 9.34557 | 37077 ft | 463 kts | 104° |
| 2026-05-07 14:35 | 51.61103 | 9.44640 | 37071 ft | 463 kts | 104° |
| 2026-05-07 14:35 | 51.59591 | 9.54712 | 37069 ft | 463 kts | 104° |
| 2026-05-07 14:36 | 51.58072 | 9.64775 | 37070 ft | 463 kts | 104° |
| 2026-05-07 14:36 | 51.56543 | 9.74825 | 37068 ft | 463 kts | 104° |
| 2026-05-07 14:37 | 51.55007 | 9.84875 | 37068 ft | 463 kts | 104° |
| 2026-05-07 14:37 | 51.52685 | 9.99928 | 37070 ft | 463 kts | 104° |
| 2026-05-07 14:38 | 51.51127 | 10.09963 | 37069 ft | 463 kts | 104° |
| 2026-05-07 14:38 | 51.49560 | 10.19980 | 37068 ft | 463 kts | 105° |
| 2026-05-07 14:39 | 51.47996 | 10.29931 | 37069 ft | 463 kts | 105° |
| 2026-05-07 14:39 | 51.46411 | 10.39940 | 37067 ft | 463 kts | 105° |
| 2026-05-07 14:40 | 51.44816 | 10.49947 | 37068 ft | 463 kts | 105° |
| 2026-05-07 14:40 | 51.43489 | 10.58334 | 37069 ft | 463 kts | 105° |
| 2026-05-07 14:41 | 51.41913 | 10.68343 | 37069 ft | 463 kts | 105° |
| 2026-05-07 14:41 | 51.40317 | 10.78342 | 37072 ft | 463 kts | 105° |
| 2026-05-07 14:42 | 51.38709 | 10.88343 | 37077 ft | 464 kts | 105° |
| 2026-05-07 14:42 | 51.37109 | 10.98270 | 37071 ft | 463 kts | 105° |
| 2026-05-07 14:43 | 51.35490 | 11.08249 | 37071 ft | 463 kts | 105° |
| 2026-05-07 14:43 | 51.33859 | 11.18225 | 37068 ft | 464 kts | 105° |
| 2026-05-07 14:44 | 51.32221 | 11.28196 | 37071 ft | 463 kts | 105° |
| 2026-05-07 14:44 | 51.30577 | 11.38149 | 37070 ft | 463 kts | 105° |
| 2026-05-07 14:45 | 51.28923 | 11.48096 | 37072 ft | 463 kts | 105° |
| 2026-05-07 14:45 | 51.27261 | 11.58041 | 37072 ft | 463 kts | 106° |
| 2026-05-07 14:46 | 51.25591 | 11.67972 | 37062 ft | 463 kts | 106° |
| 2026-05-07 14:46 | 51.23912 | 11.77902 | 37059 ft | 463 kts | 106° |
| 2026-05-07 14:47 | 51.22237 | 11.87752 | 37059 ft | 463 kts | 106° |
| 2026-05-07 14:47 | 51.20541 | 11.97668 | 37058 ft | 463 kts | 106° |
| 2026-05-07 14:48 | 51.18839 | 12.07560 | 37054 ft | 462 kts | 106° |
| 2026-05-07 14:48 | 51.17129 | 12.17447 | 37053 ft | 463 kts | 107° |
| 2026-05-07 14:49 | 51.15409 | 12.27334 | 37051 ft | 463 kts | 107° |
| 2026-05-07 14:49 | 51.13680 | 12.37214 | 37044 ft | 463 kts | 107° |
| 2026-05-07 14:50 | 51.11945 | 12.47080 | 37041 ft | 462 kts | 107° |
| 2026-05-07 14:50 | 51.10204 | 12.56926 | 37043 ft | 462 kts | 107° |
| 2026-05-07 14:51 | 51.08463 | 12.66713 | 37047 ft | 462 kts | 107° |
| 2026-05-07 14:51 | 51.06702 | 12.76559 | 37042 ft | 462 kts | 107° |
| 2026-05-07 14:52 | 51.04934 | 12.86393 | 37049 ft | 462 kts | 107° |
| 2026-05-07 14:52 | 51.03158 | 12.96220 | 37044 ft | 463 kts | 107° |
| 2026-05-07 14:53 | 51.01374 | 13.06037 | 37037 ft | 462 kts | 108° |
| 2026-05-07 14:53 | 50.99581 | 13.15845 | 37038 ft | 462 kts | 108° |
| 2026-05-07 14:54 | 50.97780 | 13.25648 | 37040 ft | 462 kts | 108° |
| 2026-05-07 14:54 | 50.95972 | 13.35440 | 37037 ft | 462 kts | 108° |
| 2026-05-07 14:55 | 50.94168 | 13.45157 | 37033 ft | 462 kts | 108° |
| 2026-05-07 14:55 | 50.92344 | 13.54927 | 37032 ft | 462 kts | 108° |
| 2026-05-07 14:56 | 50.90513 | 13.64687 | 37032 ft | 462 kts | 108° |
| 2026-05-07 14:56 | 50.88672 | 13.74446 | 37031 ft | 462 kts | 108° |
| 2026-05-07 14:57 | 50.86824 | 13.84189 | 37033 ft | 462 kts | 108° |
| 2026-05-07 14:57 | 50.84965 | 13.93929 | 37033 ft | 462 kts | 109° |
| 2026-05-07 14:58 | 50.83758 | 13.98614 | 37032 ft | 459 kts | 120° |
| 2026-05-07 14:58 | 50.82055 | 14.02855 | 37033 ft | 456 kts | 130° |
| 2026-05-07 14:58 | 50.77818 | 14.10279 | 37027 ft | 454 kts | 135° |
| 2026-05-07 14:59 | 50.73477 | 14.17538 | 37024 ft | 454 kts | 135° |
| 2026-05-07 14:59 | 50.69158 | 14.24821 | 37019 ft | 454 kts | 135° |
| 2026-05-07 15:00 | 50.64840 | 14.32107 | 37007 ft | 454 kts | 135° |
| 2026-05-07 15:00 | 50.60506 | 14.39360 | 37001 ft | 454 kts | 135° |
| 2026-05-07 15:01 | 50.56202 | 14.46555 | 36997 ft | 455 kts | 135° |
| 2026-05-07 15:01 | 50.51862 | 14.53792 | 36994 ft | 454 kts | 135° |
| 2026-05-07 15:02 | 50.47525 | 14.60998 | 36985 ft | 454 kts | 135° |
| 2026-05-07 15:02 | 50.43184 | 14.68193 | 36988 ft | 454 kts | 135° |
| 2026-05-07 15:03 | 50.38841 | 14.75372 | 36991 ft | 454 kts | 135° |
| 2026-05-07 15:03 | 50.34495 | 14.82534 | 36989 ft | 454 kts | 136° |
| 2026-05-07 15:04 | 50.30139 | 14.89691 | 36983 ft | 454 kts | 136° |
| 2026-05-07 15:04 | 50.25784 | 14.96826 | 36978 ft | 453 kts | 136° |
| 2026-05-07 15:05 | 50.21429 | 15.03943 | 36980 ft | 453 kts | 136° |
| 2026-05-07 15:05 | 50.17072 | 15.11043 | 36975 ft | 453 kts | 136° |
| 2026-05-07 15:06 | 50.12736 | 15.18087 | 36970 ft | 453 kts | 136° |
| 2026-05-07 15:06 | 50.08365 | 15.25169 | 36968 ft | 453 kts | 136° |
| 2026-05-07 15:07 | 50.04001 | 15.32221 | 36970 ft | 452 kts | 136° |
| 2026-05-07 15:07 | 49.99623 | 15.39275 | 36960 ft | 453 kts | 136° |
| 2026-05-07 15:08 | 49.95251 | 15.46299 | 36958 ft | 452 kts | 137° |
| 2026-05-07 15:08 | 49.90879 | 15.53303 | 36958 ft | 452 kts | 137° |
| 2026-05-07 15:09 | 49.86504 | 15.60294 | 36967 ft | 452 kts | 137° |
| 2026-05-07 15:09 | 49.82123 | 15.67274 | 36963 ft | 452 kts | 137° |
| 2026-05-07 15:10 | 49.77729 | 15.74256 | 36964 ft | 454 kts | 136° |
| 2026-05-07 15:10 | 49.73313 | 15.81252 | 36960 ft | 455 kts | 136° |
| 2026-05-07 15:11 | 49.68884 | 15.88254 | 36959 ft | 455 kts | 137° |
| 2026-05-07 15:11 | 49.64452 | 15.95238 | 36972 ft | 455 kts | 137° |
| 2026-05-07 15:12 | 49.60010 | 16.02216 | 36971 ft | 456 kts | 137° |
| 2026-05-07 15:12 | 49.55598 | 16.09131 | 36973 ft | 455 kts | 137° |
| 2026-05-07 15:13 | 49.51162 | 16.16063 | 36976 ft | 454 kts | 137° |
| 2026-05-07 15:13 | 49.46728 | 16.22974 | 36972 ft | 454 kts | 137° |
| 2026-05-07 15:14 | 49.42293 | 16.29868 | 36968 ft | 453 kts | 137° |
| 2026-05-07 15:14 | 49.37858 | 16.36742 | 36967 ft | 454 kts | 137° |
| 2026-05-07 15:15 | 49.33411 | 16.43616 | 36970 ft | 454 kts | 137° |
| 2026-05-07 15:15 | 49.28961 | 16.50477 | 36969 ft | 454 kts | 137° |
| 2026-05-07 15:16 | 49.24494 | 16.57344 | 36963 ft | 454 kts | 137° |
| 2026-05-07 15:16 | 49.20038 | 16.64177 | 36960 ft | 454 kts | 137° |
| 2026-05-07 15:17 | 49.15570 | 16.71007 | 36965 ft | 454 kts | 137° |
| 2026-05-07 15:17 | 49.11111 | 16.77808 | 36963 ft | 453 kts | 138° |
| 2026-05-07 15:18 | 49.06637 | 16.84611 | 36963 ft | 453 kts | 138° |
| 2026-05-07 15:18 | 49.02166 | 16.91394 | 36959 ft | 454 kts | 138° |
| 2026-05-07 15:19 | 48.97692 | 16.98164 | 36969 ft | 453 kts | 138° |
| 2026-05-07 15:19 | 48.93210 | 17.04923 | 36972 ft | 453 kts | 138° |
| 2026-05-07 15:20 | 48.88729 | 17.11663 | 36973 ft | 453 kts | 138° |
| 2026-05-07 15:20 | 48.84285 | 17.18349 | 36980 ft | 453 kts | 137° |
| 2026-05-07 15:21 | 48.79936 | 17.25298 | 36982 ft | 454 kts | 135° |
| 2026-05-07 15:21 | 48.75615 | 17.32290 | 36983 ft | 454 kts | 136° |
| 2026-05-07 15:22 | 48.71233 | 17.39163 | 36986 ft | 453 kts | 137° |
| 2026-05-07 15:22 | 48.66860 | 17.46062 | 36987 ft | 454 kts | 136° |
| 2026-05-07 15:23 | 48.62498 | 17.52965 | 36987 ft | 453 kts | 137° |
| 2026-05-07 15:23 | 48.58129 | 17.59823 | 36985 ft | 453 kts | 137° |
| 2026-05-07 15:24 | 48.53756 | 17.66672 | 36989 ft | 453 kts | 137° |
| 2026-05-07 15:24 | 48.49376 | 17.73523 | 36982 ft | 453 kts | 137° |
| 2026-05-07 15:25 | 48.45737 | 17.79199 | 36982 ft | 453 kts | 137° |
| 2026-05-07 15:25 | 48.40632 | 17.87139 | 36396 ft | 457 kts | 137° |
| 2026-05-07 15:26 | 48.38432 | 17.90555 | 35829 ft | 448 kts | 137° |
| 2026-05-07 15:26 | 48.36283 | 17.93892 | 35305 ft | 442 kts | 137° |
| 2026-05-07 15:26 | 48.34141 | 17.97206 | 34602 ft | 441 kts | 138° |
| 2026-05-07 15:26 | 48.32720 | 17.99399 | 34126 ft | 441 kts | 138° |
| 2026-05-07 15:27 | 48.30585 | 18.02690 | 33424 ft | 440 kts | 138° |
| 2026-05-07 15:27 | 48.28466 | 18.05968 | 32858 ft | 435 kts | 137° |
| 2026-05-07 15:27 | 48.26420 | 18.09285 | 32270 ft | 432 kts | 136° |
| 2026-05-07 15:27 | 48.24447 | 18.12655 | 31667 ft | 428 kts | 135° |
| 2026-05-07 15:28 | 48.22503 | 18.16014 | 31087 ft | 425 kts | 135° |
| 2026-05-07 15:28 | 48.20553 | 18.19312 | 30500 ft | 421 kts | 136° |
| 2026-05-07 15:28 | 48.18593 | 18.22549 | 29932 ft | 417 kts | 136° |
| 2026-05-07 15:28 | 48.16644 | 18.25741 | 29375 ft | 414 kts | 136° |
| 2026-05-07 15:29 | 48.14714 | 18.28919 | 28827 ft | 411 kts | 136° |
| 2026-05-07 15:29 | 48.12810 | 18.32079 | 28299 ft | 407 kts | 135° |
| 2026-05-07 15:29 | 48.10922 | 18.35220 | 27755 ft | 404 kts | 135° |
| 2026-05-07 15:29 | 48.09048 | 18.38326 | 27210 ft | 400 kts | 135° |
| 2026-05-07 15:30 | 48.07189 | 18.41395 | 26563 ft | 396 kts | 135° |
| 2026-05-07 15:30 | 48.05343 | 18.44434 | 25932 ft | 392 kts | 135° |
| 2026-05-07 15:30 | 48.03516 | 18.47439 | 25341 ft | 389 kts | 135° |
| 2026-05-07 15:30 | 48.01706 | 18.50416 | 24814 ft | 386 kts | 135° |
| 2026-05-07 15:31 | 47.99908 | 18.53370 | 24260 ft | 383 kts | 135° |
| 2026-05-07 15:31 | 47.98122 | 18.56304 | 23710 ft | 380 kts | 135° |
| 2026-05-07 15:31 | 47.96349 | 18.59217 | 23148 ft | 378 kts | 135° |
| 2026-05-07 15:31 | 47.94598 | 18.62123 | 22605 ft | 375 kts | 134° |
| 2026-05-07 15:32 | 47.92866 | 18.65012 | 22047 ft | 372 kts | 134° |
| 2026-05-07 15:32 | 47.91145 | 18.67877 | 21480 ft | 370 kts | 135° |
| 2026-05-07 15:32 | 47.89431 | 18.70716 | 20931 ft | 367 kts | 135° |
| 2026-05-07 15:32 | 47.87726 | 18.73531 | 20364 ft | 364 kts | 135° |
| 2026-05-07 15:33 | 47.86034 | 18.76320 | 19806 ft | 362 kts | 135° |
| 2026-05-07 15:33 | 47.84354 | 18.79091 | 19236 ft | 359 kts | 135° |
| 2026-05-07 15:33 | 47.82684 | 18.81844 | 18679 ft | 357 kts | 135° |
| 2026-05-07 15:33 | 47.81051 | 18.84537 | 18168 ft | 354 kts | 135° |
| 2026-05-07 15:34 | 47.79406 | 18.87246 | 17617 ft | 351 kts | 135° |
| 2026-05-07 15:34 | 47.77777 | 18.89925 | 16998 ft | 348 kts | 135° |
| 2026-05-07 15:34 | 47.76161 | 18.92576 | 16365 ft | 345 kts | 134° |
| 2026-05-07 15:34 | 47.74552 | 18.95212 | 15717 ft | 342 kts | 134° |
| 2026-05-07 15:35 | 47.72959 | 18.97820 | 15108 ft | 341 kts | 134° |
| 2026-05-07 15:35 | 47.71371 | 19.00419 | 14684 ft | 338 kts | 134° |
| 2026-05-07 15:35 | 47.69795 | 19.02999 | 14245 ft | 336 kts | 134° |
| 2026-05-07 15:35 | 47.68228 | 19.05562 | 13693 ft | 332 kts | 134° |
| 2026-05-07 15:36 | 47.66675 | 19.08097 | 13119 ft | 331 kts | 134° |
| 2026-05-07 15:36 | 47.65133 | 19.10609 | 12526 ft | 329 kts | 134° |
| 2026-05-07 15:36 | 47.63618 | 19.13075 | 11980 ft | 326 kts | 134° |
| 2026-05-07 15:36 | 47.62091 | 19.15555 | 11417 ft | 324 kts | 134° |
| 2026-05-07 15:37 | 47.60577 | 19.18016 | 10849 ft | 322 kts | 134° |
| 2026-05-07 15:37 | 47.59074 | 19.20461 | 10380 ft | 320 kts | 134° |
| 2026-05-07 15:37 | 47.57607 | 19.22846 | 10280 ft | 306 kts | 134° |
| 2026-05-07 15:37 | 47.56206 | 19.25119 | 10207 ft | 290 kts | 134° |
| 2026-05-07 15:38 | 47.54865 | 19.27290 | 9912 ft | 283 kts | 134° |
| 2026-05-07 15:38 | 47.53542 | 19.29430 | 9608 ft | 281 kts | 134° |
| 2026-05-07 15:38 | 47.52229 | 19.31552 | 9231 ft | 277 kts | 134° |
| 2026-05-07 15:38 | 47.50929 | 19.33655 | 8751 ft | 276 kts | 134° |
| 2026-05-07 15:39 | 47.49632 | 19.35750 | 8280 ft | 274 kts | 134° |
| 2026-05-07 15:39 | 47.48363 | 19.37796 | 7834 ft | 273 kts | 134° |
| 2026-05-07 15:39 | 47.47084 | 19.39857 | 7462 ft | 272 kts | 134° |
| 2026-05-07 15:39 | 47.45810 | 19.41909 | 7148 ft | 270 kts | 134° |
| 2026-05-07 15:40 | 47.44546 | 19.43944 | 6822 ft | 268 kts | 134° |
| 2026-05-07 15:40 | 47.43286 | 19.45971 | 6502 ft | 266 kts | 134° |
| 2026-05-07 15:40 | 47.42038 | 19.47977 | 6058 ft | 264 kts | 134° |
| 2026-05-07 15:40 | 47.40798 | 19.49966 | 5616 ft | 263 kts | 134° |
| 2026-05-07 15:41 | 47.39563 | 19.51949 | 5181 ft | 261 kts | 134° |
| 2026-05-07 15:41 | 47.38338 | 19.53913 | 4738 ft | 259 kts | 134° |
| 2026-05-07 15:41 | 47.37085 | 19.55799 | 4280 ft | 256 kts | 145° |
| 2026-05-07 15:41 | 47.35473 | 19.56644 | 4061 ft | 240 kts | 181° |
| 2026-05-07 15:42 | 47.33950 | 19.55958 | 3998 ft | 227 kts | 216° |
| 2026-05-07 15:42 | 47.32764 | 19.54500 | 3960 ft | 222 kts | 222° |
| 2026-05-07 15:42 | 47.31642 | 19.52971 | 3863 ft | 214 kts | 223° |
| 2026-05-07 15:42 | 47.30568 | 19.51464 | 3860 ft | 214 kts | 227° |
| 2026-05-07 15:43 | 47.29923 | 19.49535 | 3800 ft | 215 kts | 265° |
| 2026-05-07 15:43 | 47.30312 | 19.47426 | 3576 ft | 220 kts | 306° |
| 2026-05-07 15:43 | 47.31428 | 19.45915 | 3363 ft | 219 kts | 321° |
| 2026-05-07 15:43 | 47.32643 | 19.44570 | 3103 ft | 218 kts | 320° |
| 2026-05-07 15:44 | 47.33764 | 19.43108 | 2851 ft | 217 kts | 313° |
| 2026-05-07 15:44 | 47.34781 | 19.41534 | 2618 ft | 207 kts | 311° |
| 2026-05-07 15:44 | 47.35717 | 19.40030 | 2417 ft | 193 kts | 311° |
| 2026-05-07 15:44 | 47.36596 | 19.38609 | 2072 ft | 179 kts | 311° |
| 2026-05-07 15:45 | 47.37398 | 19.37314 | 1880 ft | 164 kts | 311° |
| 2026-05-07 15:45 | 47.38164 | 19.36073 | 1644 ft | 161 kts | 311° |
| 2026-05-07 15:45 | 47.38900 | 19.34884 | 1431 ft | 155 kts | 311° |
| 2026-05-07 15:45 | 47.39622 | 19.33715 | 1231 ft | 154 kts | 311° |
| 2026-05-07 15:46 | 47.41058 | 19.31392 | 823 ft | 152 kts | 311° |
| 2026-05-07 15:46 | 47.41767 | 19.30244 | 630 ft | 151 kts | 311° |
| 2026-05-07 15:46 | 47.42453 | 19.29122 | 511 ft | 144 kts | 311° |
| 2026-05-07 15:47 | 47.43010 | 19.28224 | 491 ft | 75 kts | 312° |
| 2026-05-07 15:47 | 47.43227 | 19.27879 | 487 ft | 31 kts | 313° |
| 2026-05-07 15:47 | 47.43317 | 19.27674 | 483 ft | 18 kts | 293° |
| 2026-05-07 15:47 | 47.43352 | 19.27502 | 489 ft | 17 kts | 282° |
| 2026-05-07 15:48 | 47.43376 | 19.27357 | 492 ft | 13 kts | 284° |
| 2026-05-07 15:48 | 47.43397 | 19.27230 | 485 ft | 13 kts | 283° |
| 2026-05-07 15:48 | 47.43417 | 19.27096 | 487 ft | 14 kts | 282° |
| 2026-05-07 15:48 | 47.43450 | 19.26966 | 487 ft | 13 kts | 304° |
| 2026-05-07 15:49 | 47.43514 | 19.26859 | 487 ft | 15 kts | 312° |
| 2026-05-07 15:49 | 47.43587 | 19.26741 | 485 ft | 16 kts | 313° |
| 2026-05-07 15:49 | 47.43665 | 19.26615 | 480 ft | 18 kts | 312° |
| 2026-05-07 15:49 | 47.43737 | 19.26496 | 484 ft | 12 kts | 307° |
| 2026-05-07 15:50 | 47.43725 | 19.26386 | 485 ft | 12 kts | 227° |
| 2026-05-07 15:50 | 47.43662 | 19.26298 | 486 ft | 13 kts | 220° |
| 2026-05-07 15:50 | 47.43589 | 19.26203 | 481 ft | 15 kts | 222° |
| 2026-05-07 15:50 | 47.43512 | 19.26096 | 485 ft | 16 kts | 221° |
| 2026-05-07 15:51 | 47.43434 | 19.25991 | 485 ft | 12 kts | 227° |
| 2026-05-07 15:51 | 47.43404 | 19.25904 | 479 ft | 11 kts | 228° |
| 2026-05-07 15:51 | 47.43362 | 19.25846 | 481 ft | 7 kts | 220° |
| 2026-05-07 15:51 | 47.43351 | 19.25833 | 481 ft | 0 kts | 220° |